sensor_id;sensor_type;location;lat;lon;timestamp;pressure;altitude;pressure_sealevel;temperature;humidity
69624;BME280;56843;52.020;5.670;2023-04-26T00:00:14;101730.34;;;11.41;53.69
69624;BME280;56843;52.020;5.670;2023-04-26T00:01:44;101732.22;;;11.41;53.49
69624;BME280;56843;52.020;5.670;2023-04-26T00:03:15;101732.22;;;11.41;53.98
69624;BME280;56843;52.020;5.670;2023-04-26T00:04:45;101728.75;;;11.40;54.08
69624;BME280;56843;52.020;5.670;2023-04-26T00:06:16;101733.03;;;11.41;53.66
69624;BME280;56843;52.020;5.670;2023-04-26T00:07:46;101733.81;;;11.42;53.82
69624;BME280;56843;52.020;5.670;2023-04-26T00:09:19;101729.06;;;11.39;54.15
69624;BME280;56843;52.020;5.670;2023-04-26T00:10:50;101731.44;;;11.40;54.06
69624;BME280;56843;52.020;5.670;2023-04-26T00:12:20;101724.53;;;11.39;53.80
69624;BME280;56843;52.020;5.670;2023-04-26T00:13:51;101723.41;;;11.40;54.01
69624;BME280;56843;52.020;5.670;2023-04-26T00:15:21;101729.56;;;11.41;54.08
69624;BME280;56843;52.020;5.670;2023-04-26T00:16:52;101730.66;;;11.40;54.28
69624;BME280;56843;52.020;5.670;2023-04-26T00:18:22;101729.88;;;11.39;54.31
69624;BME280;56843;52.020;5.670;2023-04-26T00:19:53;101728.00;;;11.40;54.29
69624;BME280;56843;52.020;5.670;2023-04-26T00:21:24;101727.47;;;11.38;54.20
69624;BME280;56843;52.020;5.670;2023-04-26T00:22:54;101729.56;;;11.41;54.43
69624;BME280;56843;52.020;5.670;2023-04-26T00:24:24;101727.47;;;11.38;54.39
69624;BME280;56843;52.020;5.670;2023-04-26T00:25:56;101727.47;;;11.38;54.24
69624;BME280;56843;52.020;5.670;2023-04-26T00:27:26;101724.31;;;11.36;54.25
69624;BME280;56843;52.020;5.670;2023-04-26T00:28:56;101725.91;;;11.37;54.25
69624;BME280;56843;52.020;5.670;2023-04-26T00:30:27;101729.66;;;11.36;54.43
69624;BME280;56843;52.020;5.670;2023-04-26T00:31:58;101727.00;;;11.36;54.27
69624;BME280;56843;52.020;5.670;2023-04-26T00:33:28;101725.44;;;11.35;54.45
69624;BME280;56843;52.020;5.670;2023-04-26T00:35:02;101723.06;;;11.33;54.65
69624;BME280;56843;52.020;5.670;2023-04-26T00:36:32;101723.34;;;11.32;54.44
69624;BME280;56843;52.020;5.670;2023-04-26T00:38:03;101725.75;;;11.33;54.55
69624;BME280;56843;52.020;5.670;2023-04-26T00:39:33;101728.72;;;11.32;54.74
69624;BME280;56843;52.020;5.670;2023-04-26T00:41:04;101723.66;;;11.30;54.65
69624;BME280;56843;52.020;5.670;2023-04-26T00:42:34;101721.47;;;11.32;54.82
69624;BME280;56843;52.020;5.670;2023-04-26T00:44:05;101729.81;;;11.31;54.91
69624;BME280;56843;52.020;5.670;2023-04-26T00:45:35;101726.34;;;11.30;54.88
69624;BME280;56843;52.020;5.670;2023-04-26T00:47:06;101726.66;;;11.29;54.90
69624;BME280;56843;52.020;5.670;2023-04-26T00:48:36;101722.88;;;11.30;54.91
69624;BME280;56843;52.020;5.670;2023-04-26T00:50:07;101723.19;;;11.28;54.87
69624;BME280;56843;52.020;5.670;2023-04-26T00:51:38;101725.06;;;11.28;55.02
69624;BME280;56843;52.020;5.670;2023-04-26T00:53:08;101722.38;;;11.28;54.95
69624;BME280;56843;52.020;5.670;2023-04-26T00:54:39;101726.94;;;11.27;55.26
69624;BME280;56843;52.020;5.670;2023-04-26T00:56:09;101715.44;;;11.27;55.08
69624;BME280;56843;52.020;5.670;2023-04-26T00:57:43;101715.97;;;11.29;55.13
69624;BME280;56843;52.020;5.670;2023-04-26T00:59:14;101718.91;;;11.27;54.87
69624;BME280;56843;52.020;5.670;2023-04-26T01:02:25;101720.78;;;11.27;55.26
69624;BME280;56843;52.020;5.670;2023-04-26T01:03:56;101720.78;;;11.27;55.07
69624;BME280;56843;52.020;5.670;2023-04-26T01:05:27;101725.38;;;11.26;55.13
69624;BME280;56843;52.020;5.670;2023-04-26T01:06:59;101720.03;;;11.26;55.41
69624;BME280;56843;52.020;5.670;2023-04-26T01:08:31;101723.00;;;11.25;55.10
69624;BME280;56843;52.020;5.670;2023-04-26T01:10:04;101719.22;;;11.26;55.41
69624;BME280;56843;52.020;5.670;2023-04-26T01:11:36;101714.97;;;11.25;55.22
69624;BME280;56843;52.020;5.670;2023-04-26T01:13:07;101719.06;;;11.22;55.22
69624;BME280;56843;52.020;5.670;2023-04-26T01:14:38;101723.00;;;11.25;55.27
69624;BME280;56843;52.020;5.670;2023-04-26T01:16:09;101719.84;;;11.23;55.46
69624;BME280;56843;52.020;5.670;2023-04-26T01:17:40;101716.69;;;11.21;55.41
69624;BME280;56843;52.020;5.670;2023-04-26T01:19:10;101727.38;;;11.21;55.63
69624;BME280;56843;52.020;5.670;2023-04-26T01:20:42;101730.84;;;11.21;55.54
69624;BME280;56843;52.020;5.670;2023-04-26T01:22:12;101721.22;;;11.20;55.44
69624;BME280;56843;52.020;5.670;2023-04-26T01:23:43;101729.25;;;11.20;55.31
69624;BME280;56843;52.020;5.670;2023-04-26T01:25:15;101726.88;;;11.19;55.45
69624;BME280;56843;52.020;5.670;2023-04-26T01:26:45;101731.16;;;11.20;55.38
69624;BME280;56843;52.020;5.670;2023-04-26T01:28:18;101732.22;;;11.19;55.41
69624;BME280;56843;52.020;5.670;2023-04-26T01:29:49;101738.69;;;11.18;55.68
69624;BME280;56843;52.020;5.670;2023-04-26T01:31:19;101721.06;;;11.17;55.58
69624;BME280;56843;52.020;5.670;2023-04-26T01:32:50;101734.41;;;11.17;55.76
69624;BME280;56843;52.020;5.670;2023-04-26T01:34:21;101718.97;;;11.14;55.64
69624;BME280;56843;52.020;5.670;2023-04-26T01:35:52;101726.41;;;11.17;55.96
69624;BME280;56843;52.020;5.670;2023-04-26T01:37:22;101730.94;;;11.16;55.61
69624;BME280;56843;52.020;5.670;2023-04-26T01:38:54;101732.06;;;11.15;55.83
69624;BME280;56843;52.020;5.670;2023-04-26T01:40:25;101733.94;;;11.15;55.67
69624;BME280;56843;52.020;5.670;2023-04-26T01:41:56;101725.13;;;11.14;55.69
69624;BME280;56843;52.020;5.670;2023-04-26T01:43:27;101732.34;;;11.14;55.70
69624;BME280;56843;52.020;5.670;2023-04-26T01:45:01;101724.63;;;11.12;56.01
69624;BME280;56843;52.020;5.670;2023-04-26T01:46:51;101727.13;;;11.08;55.85
69624;BME280;56843;52.020;5.670;2023-04-26T01:48:22;101731.84;;;11.12;55.90
69624;BME280;56843;52.020;5.670;2023-04-26T01:49:52;101727.63;;;11.11;55.83
69624;BME280;56843;52.020;5.670;2023-04-26T01:51:24;101732.16;;;11.10;56.32
69624;BME280;56843;52.020;5.670;2023-04-26T01:52:54;101726.81;;;11.10;55.73
69624;BME280;56843;52.020;5.670;2023-04-26T01:54:25;101727.63;;;11.11;56.03
69624;BME280;56843;52.020;5.670;2023-04-26T01:55:59;101726.03;;;11.09;55.93
69624;BME280;56843;52.020;5.670;2023-04-26T01:57:30;101727.13;;;11.08;55.82
69624;BME280;56843;52.020;5.670;2023-04-26T01:59:01;101724.47;;;11.08;56.13
69624;BME280;56843;52.020;5.670;2023-04-26T02:00:33;101724.47;;;11.08;55.78
69624;BME280;56843;52.020;5.670;2023-04-26T02:02:04;101730.09;;;11.07;56.04
69624;BME280;56843;52.020;5.670;2023-04-26T02:03:35;101721.31;;;11.06;55.95
69624;BME280;56843;52.020;5.670;2023-04-26T02:05:06;101726.66;;;11.06;56.04
69624;BME280;56843;52.020;5.670;2023-04-26T02:06:38;101730.41;;;11.05;56.20
69624;BME280;56843;52.020;5.670;2023-04-26T02:08:08;101728.81;;;11.04;56.01
69624;BME280;56843;52.020;5.670;2023-04-26T02:09:39;101724.56;;;11.03;56.00
69624;BME280;56843;52.020;5.670;2023-04-26T02:11:12;101731.00;;;11.02;56.00
69624;BME280;56843;52.020;5.670;2023-04-26T02:12:42;101727.25;;;11.03;56.10
69624;BME280;56843;52.020;5.670;2023-04-26T02:14:13;101723.28;;;11.01;56.10
69624;BME280;56843;52.020;5.670;2023-04-26T02:15:46;101717.16;;;11.00;56.41
69624;BME280;56843;52.020;5.670;2023-04-26T02:17:17;101717.47;;;10.99;56.76
69624;BME280;56843;52.020;5.670;2023-04-26T02:18:47;101724.88;;;11.02;56.27
69624;BME280;56843;52.020;5.670;2023-04-26T02:20:22;101725.97;;;11.01;56.28
69624;BME280;56843;52.020;5.670;2023-04-26T02:21:54;101732.09;;;11.01;56.31
69624;BME280;56843;52.020;5.670;2023-04-26T02:23:26;101720.94;;;10.99;56.49
69624;BME280;56843;52.020;5.670;2023-04-26T02:24:56;101732.41;;;11.00;56.65
69624;BME280;56843;52.020;5.670;2023-04-26T02:26:31;101738.53;;;11.00;56.46
69624;BME280;56843;52.020;5.670;2023-04-26T02:28:04;101739.31;;;11.01;56.25
69624;BME280;56843;52.020;5.670;2023-04-26T02:29:35;101728.63;;;11.01;56.61
69624;BME280;56843;52.020;5.670;2023-04-26T02:31:06;101733.66;;;11.02;56.54
69624;BME280;56843;52.020;5.670;2023-04-26T02:32:37;101725.66;;;11.02;56.58
69624;BME280;56843;52.020;5.670;2023-04-26T02:34:08;101729.13;;;11.03;56.33
69624;BME280;56843;52.020;5.670;2023-04-26T02:35:38;101737.94;;;11.03;56.43
69624;BME280;56843;52.020;5.670;2023-04-26T02:37:09;101731.00;;;11.02;56.53
69624;BME280;56843;52.020;5.670;2023-04-26T02:38:39;101731.00;;;11.02;56.20
69624;BME280;56843;52.020;5.670;2023-04-26T02:40:11;101731.78;;;11.03;56.46
69624;BME280;56843;52.020;5.670;2023-04-26T02:41:42;101729.91;;;11.03;56.47
69624;BME280;56843;52.020;5.670;2023-04-26T02:43:13;101722.69;;;11.04;56.47
69624;BME280;56843;52.020;5.670;2023-04-26T02:44:43;101728.81;;;11.04;56.47
69624;BME280;56843;52.020;5.670;2023-04-26T02:46:14;101718.13;;;11.04;56.31
69624;BME280;56843;52.020;5.670;2023-04-26T02:47:44;101723.19;;;11.06;56.42
69624;BME280;56843;52.020;5.670;2023-04-26T02:49:15;101726.94;;;11.05;56.36
69624;BME280;56843;52.020;5.670;2023-04-26T02:50:46;101726.13;;;11.04;56.43
69624;BME280;56843;52.020;5.670;2023-04-26T02:52:18;101726.44;;;11.03;56.65
69624;BME280;56843;52.020;5.670;2023-04-26T02:53:48;101719.53;;;11.02;56.52
69624;BME280;56843;52.020;5.670;2023-04-26T02:55:19;101712.91;;;10.99;56.51
69624;BME280;56843;52.020;5.670;2023-04-26T02:56:49;101721.22;;;10.98;56.54
69624;BME280;56843;52.020;5.670;2023-04-26T02:58:20;101716.19;;;10.96;56.82
69624;BME280;56843;52.020;5.670;2023-04-26T02:59:51;101727.66;;;10.97;56.36
69624;BME280;56843;52.020;5.670;2023-04-26T03:01:22;101722.31;;;10.97;56.44
69624;BME280;56843;52.020;5.670;2023-04-26T03:02:53;101716.50;;;10.95;56.58
69624;BME280;56843;52.020;5.670;2023-04-26T03:04:23;101721.03;;;10.94;56.24
69624;BME280;56843;52.020;5.670;2023-04-26T03:05:54;101714.09;;;10.93;56.53
69624;BME280;56843;52.020;5.670;2023-04-26T03:07:24;101716.00;;;10.93;56.65
69624;BME280;56843;52.020;5.670;2023-04-26T03:08:55;101713.63;;;10.91;56.24
69624;BME280;56843;52.020;5.670;2023-04-26T03:10:25;101717.09;;;10.92;56.34
69624;BME280;56843;52.020;5.670;2023-04-26T03:11:56;101721.63;;;10.91;56.66
69624;BME280;56843;52.020;5.670;2023-04-26T03:13:27;101715.53;;;10.91;56.57
69624;BME280;56843;52.020;5.670;2023-04-26T03:14:59;101719.28;;;10.90;56.37
69624;BME280;56843;52.020;5.670;2023-04-26T03:16:40;101719.59;;;10.88;56.72
69624;BME280;56843;52.020;5.670;2023-04-26T03:18:11;101704.94;;;10.86;56.63
69624;BME280;56843;52.020;5.670;2023-04-26T03:19:41;101716.69;;;10.85;56.51
69624;BME280;56843;52.020;5.670;2023-04-26T03:21:12;101722.06;;;10.85;56.39
69624;BME280;56843;52.020;5.670;2023-04-26T03:22:42;101711.66;;;10.83;56.30
69624;BME280;56843;52.020;5.670;2023-04-26T03:24:13;101711.66;;;10.83;56.48
69624;BME280;56843;52.020;5.670;2023-04-26T03:25:44;101721.56;;;10.83;56.14
69624;BME280;56843;52.020;5.670;2023-04-26T03:27:15;101713.06;;;10.81;56.33
69624;BME280;56843;52.020;5.670;2023-04-26T03:28:45;101716.03;;;10.79;56.28
69624;BME280;56843;52.020;5.670;2023-04-26T03:30:16;101715.25;;;10.79;56.29
69624;BME280;56843;52.020;5.670;2023-04-26T03:31:48;101719.78;;;10.78;56.33
69624;BME280;56843;52.020;5.670;2023-04-26T03:33:19;101712.88;;;10.77;56.37
69624;BME280;56843;52.020;5.670;2023-04-26T03:34:50;101712.09;;;10.77;56.63
69624;BME280;56843;52.020;5.670;2023-04-26T03:36:20;101701.41;;;10.77;56.48
69624;BME280;56843;52.020;5.670;2023-04-26T03:37:51;101713.97;;;10.76;56.52
69624;BME280;56843;52.020;5.670;2023-04-26T03:39:22;101711.59;;;10.75;56.52
69624;BME280;56843;52.020;5.670;2023-04-26T03:40:52;101704.66;;;10.74;56.51
69624;BME280;56843;52.020;5.670;2023-04-26T03:42:23;101710.81;;;10.74;56.26
69624;BME280;56843;52.020;5.670;2023-04-26T03:43:53;101711.13;;;10.73;56.45
69624;BME280;56843;52.020;5.670;2023-04-26T03:45:24;101712.19;;;10.72;56.52
69624;BME280;56843;52.020;5.670;2023-04-26T03:46:58;101708.72;;;10.71;56.35
69624;BME280;56843;52.020;5.670;2023-04-26T03:48:29;101698.34;;;10.70;56.54
69624;BME280;56843;52.020;5.670;2023-04-26T03:49:59;101707.47;;;10.69;56.29
69624;BME280;56843;52.020;5.670;2023-04-26T03:51:30;101710.13;;;10.69;56.53
69624;BME280;56843;52.020;5.670;2023-04-26T03:53:00;101708.53;;;10.68;56.83
69624;BME280;56843;52.020;5.670;2023-04-26T03:54:31;101704.00;;;10.68;56.27
69624;BME280;56843;52.020;5.670;2023-04-26T03:56:01;101707.75;;;10.67;56.52
69624;BME280;56843;52.020;5.670;2023-04-26T03:57:33;101710.41;;;10.67;56.47
69624;BME280;56843;52.020;5.670;2023-04-26T03:59:04;101708.84;;;10.66;56.32
69624;BME280;56843;52.020;5.670;2023-04-26T04:00:39;101712.31;;;10.67;56.22
69624;BME280;56843;52.020;5.670;2023-04-26T04:02:11;101702.22;;;10.64;56.07
69624;BME280;56843;52.020;5.670;2023-04-26T04:03:42;101711.31;;;10.63;56.62
69624;BME280;56843;52.020;5.670;2023-04-26T04:05:13;101709.44;;;10.63;56.47
69624;BME280;56843;52.020;5.670;2023-04-26T04:06:43;101710.25;;;10.64;56.32
69624;BME280;56843;52.020;5.670;2023-04-26T04:08:15;101712.91;;;10.64;56.14
69624;BME280;56843;52.020;5.670;2023-04-26T04:09:45;101715.91;;;10.62;56.70
69624;BME280;56843;52.020;5.670;2023-04-26T04:11:16;101710.56;;;10.62;56.21
69624;BME280;56843;52.020;5.670;2023-04-26T04:12:46;101711.63;;;10.61;56.19
69624;BME280;56843;52.020;5.670;2023-04-26T04:14:17;101704.69;;;10.60;56.23
69624;BME280;56843;52.020;5.670;2023-04-26T04:15:47;101714.59;;;10.60;56.30
69624;BME280;56843;52.020;5.670;2023-04-26T04:17:18;101711.13;;;10.59;56.22
69624;BME280;56843;52.020;5.670;2023-04-26T04:18:48;101707.38;;;10.60;56.28
69624;BME280;56843;52.020;5.670;2023-04-26T04:20:19;101713.00;;;10.59;56.35
69624;BME280;56843;52.020;5.670;2023-04-26T04:21:51;101709.25;;;10.60;56.23
69624;BME280;56843;52.020;5.670;2023-04-26T04:23:22;101707.66;;;10.59;56.37
69624;BME280;56843;52.020;5.670;2023-04-26T04:24:53;101705.78;;;10.59;56.45
69624;BME280;56843;52.020;5.670;2023-04-26T04:26:23;101705.31;;;10.57;56.17
69624;BME280;56843;52.020;5.670;2023-04-26T04:27:54;101701.84;;;10.57;56.14
69624;BME280;56843;52.020;5.670;2023-04-26T04:29:26;101706.38;;;10.56;56.25
69624;BME280;56843;52.020;5.670;2023-04-26T04:30:57;101700.28;;;10.56;56.50
69624;BME280;56843;52.020;5.670;2023-04-26T04:32:30;101701.03;;;10.56;56.17
69624;BME280;56843;52.020;5.670;2023-04-26T04:34:02;101704.03;;;10.55;56.03
69624;BME280;56843;52.020;5.670;2023-04-26T04:35:33;101703.72;;;10.56;56.19
69624;BME280;56843;52.020;5.670;2023-04-26T04:37:06;101700.28;;;10.56;56.48
69624;BME280;56843;52.020;5.670;2023-04-26T04:38:37;101701.03;;;10.56;56.38
69624;BME280;56843;52.020;5.670;2023-04-26T04:40:09;101704.03;;;10.55;56.22
69624;BME280;56843;52.020;5.670;2023-04-26T04:41:41;101706.38;;;10.56;56.34
69624;BME280;56843;52.020;5.670;2023-04-26T04:43:17;101707.50;;;10.55;56.23
69624;BME280;56843;52.020;5.670;2023-04-26T04:44:49;101707.78;;;10.54;56.59
69624;BME280;56843;52.020;5.670;2023-04-26T04:46:20;101708.56;;;10.54;56.37
69624;BME280;56843;52.020;5.670;2023-04-26T04:47:51;101708.28;;;10.56;56.27
69624;BME280;56843;52.020;5.670;2023-04-26T04:49:23;101705.09;;;10.54;56.27
69624;BME280;56843;52.020;5.670;2023-04-26T04:50:54;101713.63;;;10.56;56.05
69624;BME280;56843;52.020;5.670;2023-04-26T04:52:25;101716.59;;;10.54;56.26
69624;BME280;56843;52.020;5.670;2023-04-26T04:53:56;101716.00;;;10.57;56.32
69624;BME280;56843;52.020;5.670;2023-04-26T04:55:26;101724.31;;;10.56;56.12
69624;BME280;56843;52.020;5.670;2023-04-26T04:56:57;101717.06;;;10.56;56.03
69624;BME280;56843;52.020;5.670;2023-04-26T04:58:28;101716.31;;;10.56;56.08
69624;BME280;56843;52.020;5.670;2023-04-26T04:59:58;101722.41;;;10.56;56.34
69624;BME280;56843;52.020;5.670;2023-04-26T05:01:37;101716.59;;;10.54;56.39
69624;BME280;56843;52.020;5.670;2023-04-26T05:03:12;101718.66;;;10.57;56.00
69624;BME280;56843;52.020;5.670;2023-04-26T05:04:44;101713.63;;;10.56;56.25
69624;BME280;56843;52.020;5.670;2023-04-26T05:06:15;101711.72;;;10.56;56.19
69624;BME280;56843;52.020;5.670;2023-04-26T05:07:45;101716.00;;;10.57;56.13
69624;BME280;56843;52.020;5.670;2023-04-26T05:09:17;101719.47;;;10.58;56.01
69624;BME280;56843;52.020;5.670;2023-04-26T05:10:47;101725.28;;;10.60;56.32
69624;BME280;56843;52.020;5.670;2023-04-26T05:12:18;101718.03;;;10.60;55.99
69624;BME280;56843;52.020;5.670;2023-04-26T05:13:50;101723.38;;;10.60;56.28
69624;BME280;56843;52.020;5.670;2023-04-26T05:15:21;101714.13;;;10.58;56.04
69624;BME280;56843;52.020;5.670;2023-04-26T05:16:51;101726.56;;;10.62;56.30
69624;BME280;56843;52.020;5.670;2023-04-26T05:18:22;101728.16;;;10.63;56.29
69624;BME280;56843;52.020;5.670;2023-04-26T05:19:52;101728.94;;;10.64;56.35
69624;BME280;56843;52.020;5.670;2023-04-26T05:21:23;101735.06;;;10.64;56.20
69624;BME280;56843;52.020;5.670;2023-04-26T05:22:53;101733.19;;;10.65;56.15
69624;BME280;56843;52.020;5.670;2023-04-26T05:24:24;101737.94;;;10.68;56.50
69624;BME280;56843;52.020;5.670;2023-04-26T05:25:55;101738.91;;;10.72;56.22
69624;BME280;56843;52.020;5.670;2023-04-26T05:27:48;101745.53;;;10.74;56.26
69624;BME280;56843;52.020;5.670;2023-04-26T05:29:39;101741.16;;;10.78;56.29
69624;BME280;56843;52.020;5.670;2023-04-26T05:31:39;101746.72;;;10.82;56.35
69624;BME280;56843;52.020;5.670;2023-04-26T05:33:25;101735.72;;;10.83;56.20
69624;BME280;56843;52.020;5.670;2023-04-26T05:35:07;101738.78;;;10.90;56.06
69624;BME280;56843;52.020;5.670;2023-04-26T05:36:38;101742.09;;;10.96;56.10
69624;BME280;56843;52.020;5.670;2023-04-26T05:38:09;101742.31;;;10.99;56.09
69624;BME280;56843;52.020;5.670;2023-04-26T05:39:39;101745.16;;;11.03;55.84
69624;BME280;56843;52.020;5.670;2023-04-26T05:41:10;101742.69;;;11.06;56.03
69624;BME280;56843;52.020;5.670;2023-04-26T05:42:40;101742.06;;;11.09;55.49
69624;BME280;56843;52.020;5.670;2023-04-26T05:44:14;101740.69;;;11.12;55.61
69624;BME280;56843;52.020;5.670;2023-04-26T05:45:52;101736.59;;;11.15;55.39
69624;BME280;56843;52.020;5.670;2023-04-26T05:47:23;101741.38;;;11.18;55.37
69624;BME280;56843;52.020;5.670;2023-04-26T05:48:56;101753.31;;;11.20;55.50
69624;BME280;56843;52.020;5.670;2023-04-26T05:50:26;101743.91;;;11.23;55.33
69624;BME280;56843;52.020;5.670;2023-04-26T05:51:59;101740.63;;;11.26;55.43
69624;BME280;56843;52.020;5.670;2023-04-26T05:53:31;101754.47;;;11.28;55.25
69624;BME280;56843;52.020;5.670;2023-04-26T05:55:03;101744.75;;;11.32;55.16
69624;BME280;56843;52.020;5.670;2023-04-26T05:56:35;101745.22;;;11.34;55.30
69624;BME280;56843;52.020;5.670;2023-04-26T05:58:05;101752.66;;;11.37;55.09
69624;BME280;56843;52.020;5.670;2023-04-26T05:59:36;101747.47;;;11.40;55.20
69624;BME280;56843;52.020;5.670;2023-04-26T06:01:07;101744.22;;;11.43;54.86
69624;BME280;56843;52.020;5.670;2023-04-26T06:02:38;101740.94;;;11.46;54.91
69624;BME280;56843;52.020;5.670;2023-04-26T06:04:09;101743.78;;;11.50;55.12
69624;BME280;56843;52.020;5.670;2023-04-26T06:05:49;101749.59;;;11.52;54.74
69624;BME280;56843;52.020;5.670;2023-04-26T06:07:20;101747.94;;;11.56;54.74
69624;BME280;56843;52.020;5.670;2023-04-26T06:08:51;101761.50;;;11.59;54.70
69624;BME280;56843;52.020;5.670;2023-04-26T06:10:22;101750.16;;;11.62;54.62
69624;BME280;56843;52.020;5.670;2023-04-26T06:11:53;101755.72;;;11.66;54.66
69624;BME280;56843;52.020;5.670;2023-04-26T06:13:23;101754.81;;;11.70;54.51
69624;BME280;56843;52.020;5.670;2023-04-26T06:14:54;101752.59;;;11.72;54.92
69624;BME280;56843;52.020;5.670;2023-04-26T06:16:28;101756.56;;;11.75;54.56
69624;BME280;56843;52.020;5.670;2023-04-26T06:17:59;101768.50;;;11.77;54.65
69624;BME280;56843;52.020;5.670;2023-04-26T06:19:29;101763.34;;;11.81;54.93
69624;BME280;56843;52.020;5.670;2023-04-26T06:21:00;101759.56;;;11.82;54.65
69624;BME280;56843;52.020;5.670;2023-04-26T06:22:30;101758.03;;;11.90;54.72
69624;BME280;56843;52.020;5.670;2023-04-26T06:24:01;101760.88;;;11.93;54.52
69624;BME280;56843;52.020;5.670;2023-04-26T06:25:32;101758.41;;;11.97;54.62
69624;BME280;56843;52.020;5.670;2023-04-26T06:27:04;101758.88;;;11.99;54.71
69624;BME280;56843;52.020;5.670;2023-04-26T06:28:34;101763.31;;;12.03;54.44
69624;BME280;56843;52.020;5.670;2023-04-26T06:30:06;101756.53;;;12.06;54.51
69624;BME280;56843;52.020;5.670;2023-04-26T06:31:38;101765.53;;;12.10;54.77
69624;BME280;56843;52.020;5.670;2023-04-26T06:33:09;101762.53;;;12.11;54.31
69624;BME280;56843;52.020;5.670;2023-04-26T06:34:40;101756.56;;;12.14;54.60
69624;BME280;56843;52.020;5.670;2023-04-26T06:36:13;101757.84;;;12.17;54.26
69624;BME280;56843;52.020;5.670;2023-04-26T06:37:45;101767.75;;;12.16;54.60
69624;BME280;56843;52.020;5.670;2023-04-26T06:39:15;101767.16;;;12.19;54.05
69624;BME280;56843;52.020;5.670;2023-04-26T06:40:47;101766.03;;;12.20;54.32
69624;BME280;56843;52.020;5.670;2023-04-26T06:42:18;101765.44;;;12.23;54.41
69624;BME280;56843;52.020;5.670;2023-04-26T06:44:04;101763.56;;;12.24;54.16
69624;BME280;56843;52.020;5.670;2023-04-26T06:45:35;101767.47;;;12.26;54.17
69624;BME280;56843;52.020;5.670;2023-04-26T06:47:06;101773.31;;;12.28;53.97
69624;BME280;56843;52.020;5.670;2023-04-26T06:48:38;101774.28;;;12.32;53.87
69624;BME280;56843;52.020;5.670;2023-04-26T06:50:09;101768.94;;;12.32;54.12
69624;BME280;56843;52.020;5.670;2023-04-26T06:51:40;101767.81;;;12.33;54.22
69624;BME280;56843;52.020;5.670;2023-04-26T06:53:10;101768.00;;;12.37;54.35
69624;BME280;56843;52.020;5.670;2023-04-26T06:54:41;101765.00;;;12.38;54.29
69624;BME280;56843;52.020;5.670;2023-04-26T06:56:11;101765.47;;;12.40;54.13
69624;BME280;56843;52.020;5.670;2023-04-26T06:57:42;101767.84;;;12.42;53.92
69624;BME280;56843;52.020;5.670;2023-04-26T06:59:12;101771.78;;;12.44;54.18
69624;BME280;56843;52.020;5.670;2023-04-26T07:00:43;101776.06;;;12.45;54.05
69624;BME280;56843;52.020;5.670;2023-04-26T07:02:13;101772.28;;;12.46;54.13
69624;BME280;56843;52.020;5.670;2023-04-26T07:03:43;101770.88;;;12.49;54.13
69624;BME280;56843;52.020;5.670;2023-04-26T07:05:14;101773.53;;;12.49;54.05
69624;BME280;56843;52.020;5.670;2023-04-26T07:06:45;101777.50;;;12.51;53.63
69624;BME280;56843;52.020;5.670;2023-04-26T07:08:15;101768.38;;;12.52;53.69
69624;BME280;56843;52.020;5.670;2023-04-26T07:09:46;101778.75;;;12.54;53.47
69624;BME280;56843;52.020;5.670;2023-04-26T07:11:17;101780.03;;;12.57;53.59
69624;BME280;56843;52.020;5.670;2023-04-26T07:12:48;101777.03;;;12.58;53.64
69624;BME280;56843;52.020;5.670;2023-04-26T07:14:19;101789.63;;;12.57;53.20
69624;BME280;56843;52.020;5.670;2023-04-26T07:15:49;101788.22;;;12.60;53.07
69624;BME280;56843;52.020;5.670;2023-04-26T07:17:20;101779.88;;;12.62;53.33
69624;BME280;56843;52.020;5.670;2023-04-26T07:18:51;101783.06;;;12.64;52.97
69624;BME280;56843;52.020;5.670;2023-04-26T07:20:27;101789.97;;;12.65;52.78
69624;BME280;56843;52.020;5.670;2023-04-26T07:21:57;101772.00;;;12.65;53.10
69624;BME280;56843;52.020;5.670;2023-04-26T07:23:28;101779.72;;;12.67;52.89
69624;BME280;56843;52.020;5.670;2023-04-26T07:24:59;101775.97;;;12.68;52.70
69624;BME280;56843;52.020;5.670;2023-04-26T07:26:29;101778.31;;;12.69;52.75
69624;BME280;56843;52.020;5.670;2023-04-26T07:28:00;101775.31;;;12.71;52.60
69624;BME280;56843;52.020;5.670;2023-04-26T07:29:31;101781.16;;;12.73;52.77
69624;BME280;56843;52.020;5.670;2023-04-26T07:31:01;101772.03;;;12.74;52.32
69624;BME280;56843;52.020;5.670;2023-04-26T07:32:32;101781.00;;;12.78;52.66
69624;BME280;56843;52.020;5.670;2023-04-26T07:34:02;101770.78;;;12.80;52.29
69624;BME280;56843;52.020;5.670;2023-04-26T07:35:32;101777.44;;;12.82;52.68
69624;BME280;56843;52.020;5.670;2023-04-26T07:37:04;101770.19;;;12.83;52.28
69624;BME280;56843;52.020;5.670;2023-04-26T07:38:35;101777.44;;;12.82;52.53
69624;BME280;56843;52.020;5.670;2023-04-26T07:40:06;101776.34;;;12.83;52.50
69624;BME280;56843;52.020;5.670;2023-04-26T07:41:38;101779.78;;;12.84;52.57
69624;BME280;56843;52.020;5.670;2023-04-26T07:43:08;101776.50;;;12.87;52.49
69624;BME280;56843;52.020;5.670;2023-04-26T07:44:39;101781.53;;;12.88;52.31
69624;BME280;56843;52.020;5.670;2023-04-26T07:46:09;101776.34;;;12.92;52.26
69624;BME280;56843;52.020;5.670;2023-04-26T07:47:40;101771.91;;;12.96;52.50
69624;BME280;56843;52.020;5.670;2023-04-26T07:49:10;101773.19;;;12.98;52.47
69624;BME280;56843;52.020;5.670;2023-04-26T07:50:41;101767.22;;;13.01;52.29
69624;BME280;56843;52.020;5.670;2023-04-26T07:52:11;101772.25;;;13.03;52.17
69624;BME280;56843;52.020;5.670;2023-04-26T07:53:42;101768.78;;;13.02;51.89
69624;BME280;56843;52.020;5.670;2023-04-26T07:55:12;101775.06;;;13.06;51.94
69624;BME280;56843;52.020;5.670;2023-04-26T07:56:43;101775.88;;;13.07;52.14
69624;BME280;56843;52.020;5.670;2023-04-26T07:58:13;101778.09;;;13.05;52.20
69624;BME280;56843;52.020;5.670;2023-04-26T07:59:44;101786.13;;;13.05;52.28